Time;durP1;ratioP1;P1;durP2;ratioP2;P2;SDS_P1;SDS_P2;PMS_P1;PMS_P2;Temp;Humidity;BMP_temperature;BMP_pressure;BME280_temperature;BME280_humidity;BME280_pressure;Samples;Min_cycle;Max_cycle;Signal;HPM_P1;HPM_P2
2023/09/20 00:01:25;;;;;;;0.25;0.25;;;18.40;99.90;;;;;;5011552;28;20069;-83
2023/09/20 00:03:51;;;;;;;0.30;0.30;;;18.40;99.90;;;;;;5011553;28;20466;-83
2023/09/20 00:06:18;;;;;;;0.52;0.20;;;18.40;99.90;;;;;;5011312;28;20113;-82
2023/09/20 00:08:47;;;;;;;0.40;0.40;;;18.40;99.90;;;;;;5011524;28;20370;-83
2023/09/20 00:11:15;;;;;;;0.35;0.30;;;18.40;99.90;;;;;;4993724;28;20478;-83
2023/09/20 00:13:42;;;;;;;0.40;0.32;;;18.40;99.90;;;;;;5009836;28;20026;-83
2023/09/20 00:16:09;;;;;;;9.43;0.43;;;18.30;99.90;;;;;;5011202;28;20371;-83
2023/09/20 00:18:36;;;;;;;2.85;0.98;;;18.30;99.90;;;;;;5011408;28;20025;-84
2023/09/20 00:21:02;;;;;;;0.00;0.00;;;18.20;99.90;;;;;;5026316;28;20056;-82
2023/09/20 00:23:28;;;;;;;1.08;0.90;;;18.20;99.90;;;;;;5010444;28;20018;-84
2023/09/20 00:25:54;;;;;;;0.65;0.45;;;18.20;99.90;;;;;;5010848;28;20063;-83
2023/09/20 00:28:20;;;;;;;0.10;0.10;;;18.20;99.90;;;;;;5010963;28;20065;-84
2023/09/20 00:30:45;;;;;;;0.00;0.00;;;18.20;99.90;;;;;;5011049;28;20040;-84
2023/09/20 00:33:12;;;;;;;0.10;0.10;;;18.30;99.90;;;;;;5010952;28;20363;-82
2023/09/20 00:35:41;;;;;;;1.15;0.47;;;18.40;99.90;;;;;;5009760;28;20047;-80
2023/09/20 00:38:07;;;;;;;1.40;0.85;;;18.40;99.90;;;;;;5010737;28;20037;-82
2023/09/20 00:40:35;;;;;;;9.23;0.85;;;18.40;99.90;;;;;;5025773;28;20048;-84
2023/09/20 00:43:04;;;;;;;0.55;0.25;;;18.50;99.90;;;;;;5009608;28;20030;-82
2023/09/20 00:45:30;;;;;;;2.92;0.90;;;18.60;99.90;;;;;;5010965;28;20030;-77
2023/09/20 00:47:58;;;;;;;1.02;0.50;;;18.50;99.90;;;;;;5011237;28;20022;-76
2023/09/20 00:50:27;;;;;;;3.83;1.48;;;18.50;99.90;;;;;;5010557;28;20061;-78
2023/09/20 00:52:55;;;;;;;0.80;0.80;;;18.40;99.90;;;;;;5010973;28;20026;-76
2023/09/20 00:55:30;;;;;;;6.53;1.25;;;18.40;99.90;;;;;;5010473;28;20095;-76
2023/09/20 00:58:13;;;;;;;0.80;0.80;;;18.40;99.90;;;;;;5009666;28;20034;-79
2023/09/20 01:00:43;;;;;;;0.40;0.40;;;18.40;99.90;;;;;;5009191;28;20488;-77
2023/09/20 01:03:11;;;;;;;2.72;0.82;;;18.40;99.90;;;;;;5010725;28;20021;-77
2023/09/20 01:05:37;;;;;;;1.65;0.77;;;18.50;99.90;;;;;;5025941;28;20025;-77
2023/09/20 01:08:06;;;;;;;0.38;0.38;;;18.60;99.90;;;;;;5009273;28;20026;-76
2023/09/20 01:10:33;;;;;;;2.13;1.23;;;18.50;99.90;;;;;;5010094;28;20466;-76
2023/09/20 01:13:07;;;;;;;10.38;0.85;;;18.40;99.90;;;;;;5009270;28;20494;-76
2023/09/20 01:15:35;;;;;;;1.70;0.32;;;18.40;99.90;;;;;;5088487;28;20382;-81
2023/09/20 01:18:04;;;;;;;0.35;0.35;;;18.50;99.90;;;;;;5009085;28;20022;-77
2023/09/20 01:20:31;;;;;;;0.47;0.47;;;18.40;99.90;;;;;;4992799;28;20109;-77
2023/09/20 01:22:58;;;;;;;1.40;0.65;;;18.40;99.90;;;;;;5005974;28;20075;-76
2023/09/20 01:25:25;;;;;;;0.40;0.28;;;18.60;99.90;;;;;;4992713;28;20018;-77
2023/09/20 01:27:55;;;;;;;2.45;0.68;;;18.60;99.90;;;;;;5010362;28;20062;-78
2023/09/20 01:30:25;;;;;;;0.00;0.00;;;18.60;99.90;;;;;;5010193;28;20049;-78
2023/09/20 01:32:55;;;;;;;0.00;0.00;;;18.70;99.90;;;;;;5008874;28;20037;-82
2023/09/20 01:35:22;;;;;;;0.55;0.28;;;18.50;99.90;;;;;;5008682;28;20026;-84
2023/09/20 01:37:51;;;;;;;0.38;0.25;;;18.50;99.90;;;;;;5010065;28;20101;-84
2023/09/20 01:40:18;;;;;;;0.57;0.57;;;18.50;99.90;;;;;;5009711;28;20026;-84
2023/09/20 01:42:49;;;;;;;1.52;0.57;;;18.50;99.90;;;;;;5025173;28;20033;-82
2023/09/20 01:45:18;;;;;;;0.40;0.40;;;18.40;99.90;;;;;;5008770;28;20030;-82
2023/09/20 01:47:45;;;;;;;8.57;0.68;;;18.50;99.90;;;;;;5008739;28;20482;-84
2023/09/20 01:50:12;;;;;;;0.45;0.20;;;18.40;99.90;;;;;;5009872;28;20035;-84
2023/09/20 01:52:38;;;;;;;0.10;0.10;;;18.30;99.90;;;;;;5008390;28;20026;-84
2023/09/20 01:55:08;;;;;;;1.20;0.68;;;18.30;99.90;;;;;;5008223;28;20059;-84
2023/09/20 01:57:34;;;;;;;5.32;0.93;;;18.20;99.90;;;;;;5008458;28;20041;-84
2023/09/20 02:00:00;;;;;;;7.53;1.05;;;18.10;99.90;;;;;;5008475;28;20034;-83
2023/09/20 02:02:26;;;;;;;1.67;1.02;;;18.20;99.90;;;;;;5024970;28;20041;-84
2023/09/20 02:04:52;;;;;;;0.98;0.98;;;18.10;99.90;;;;;;5009858;28;20049;-76
2023/09/20 02:07:22;;;;;;;0.30;0.30;;;18.00;99.90;;;;;;5008242;28;20470;-77
2023/09/20 02:09:48;;;;;;;0.10;0.10;;;18.00;99.90;;;;;;5009928;28;20030;-77
2023/09/20 02:12:15;;;;;;;0.20;0.15;;;18.00;99.90;;;;;;5008550;28;20022;-80
2023/09/20 02:14:41;;;;;;;1.38;0.70;;;17.90;99.90;;;;;;5009718;28;20375;-78
2023/09/20 02:17:07;;;;;;;0.00;0.00;;;18.10;99.90;;;;;;5008406;28;20067;-79
2023/09/20 02:19:34;;;;;;;0.38;0.35;;;18.10;99.90;;;;;;5008484;28;20032;-81
2023/09/20 02:21:59;;;;;;;1.30;0.57;;;17.90;99.90;;;;;;5008161;28;20018;-79
2023/09/20 02:24:26;;;;;;;1.35;0.65;;;18.00;99.90;;;;;;4994432;28;20383;-78
2023/09/20 02:26:52;;;;;;;0.90;0.90;;;18.10;99.90;;;;;;5009490;28;20517;-80
2023/09/20 02:29:18;;;;;;;3.95;1.02;;;18.00;99.90;;;;;;5009648;28;20022;-82
2023/09/20 02:31:44;;;;;;;0.55;0.55;;;17.80;99.90;;;;;;5008338;28;20038;-78
2023/09/20 02:34:13;;;;;;;0.98;0.63;;;17.70;99.90;;;;;;5009251;28;20029;-78
2023/09/20 02:36:38;;;;;;;0.40;0.30;;;17.80;99.90;;;;;;5009133;28;20041;-81
2023/09/20 02:39:06;;;;;;;0.85;0.75;;;17.80;99.90;;;;;;5009289;28;20030;-83
2023/09/20 02:41:31;;;;;;;0.00;0.00;;;17.70;99.90;;;;;;5009723;28;20084;-81
2023/09/20 02:43:57;;;;;;;0.75;0.45;;;17.60;99.90;;;;;;5009367;28;20490;-83
2023/09/20 02:46:23;;;;;;;0.68;0.30;;;17.60;99.90;;;;;;5008547;28;20105;-77
2023/09/20 02:48:49;;;;;;;0.00;0.00;;;17.60;99.90;;;;;;5011551;28;20101;-82
2023/09/20 02:51:16;;;;;;;1.33;1.23;;;17.50;99.90;;;;;;5011081;28;20556;-81
2023/09/20 02:53:42;;;;;;;1.65;1.55;;;17.50;99.90;;;;;;5011183;28;20034;-76
2023/09/20 02:56:08;;;;;;;3.42;0.88;;;17.60;99.90;;;;;;5011368;28;20057;-78
2023/09/20 02:58:37;;;;;;;5.25;1.70;;;17.60;99.90;;;;;;5011220;28;20057;-78
2023/09/20 03:01:03;;;;;;;1.23;0.98;;;17.60;99.90;;;;;;5011076;28;20038;-79
2023/09/20 03:03:29;;;;;;;0.45;0.45;;;17.50;99.90;;;;;;5010939;28;20158;-83
2023/09/20 03:05:56;;;;;;;4.13;0.90;;;17.50;99.90;;;;;;5010984;28;20501;-79
2023/09/20 03:08:24;;;;;;;6.50;1.40;;;17.40;99.90;;;;;;5010883;28;20033;-79
2023/09/20 03:10:53;;;;;;;0.52;0.52;;;17.40;99.90;;;;;;5010875;28;20044;-82
2023/09/20 03:13:19;;;;;;;0.30;0.30;;;17.30;99.90;;;;;;5010724;28;20026;-83
2023/09/20 03:15:54;;;;;;;0.65;0.65;;;17.40;99.90;;;;;;5011326;28;20125;-82
2023/09/20 03:18:22;;;;;;;0.47;0.47;;;17.40;99.90;;;;;;5010873;28;20026;-79
2023/09/20 03:20:53;;;;;;;9.82;1.10;;;17.30;99.90;;;;;;5010945;28;20030;-83
2023/09/20 03:23:20;;;;;;;6.32;5.70;;;17.40;99.90;;;;;;5012201;28;20109;-83
2023/09/20 03:25:46;;;;;;;2.20;0.20;;;17.40;99.90;;;;;;5010575;28;20546;-84
2023/09/20 03:28:22;;;;;;;11.52;1.77;;;17.30;99.90;;;;;;4992323;28;20474;-84
2023/09/20 03:30:51;;;;;;;2.25;2.05;;;17.10;99.90;;;;;;5007034;28;20040;-81
2023/09/20 03:33:17;;;;;;;1.55;0.80;;;17.20;99.90;;;;;;5010816;28;20017;-83
2023/09/20 03:35:44;;;;;;;0.28;0.25;;;17.30;99.90;;;;;;4993786;28;20037;-83
2023/09/20 03:38:10;;;;;;;2.92;0.82;;;17.40;99.90;;;;;;5011979;28;20018;-84
2023/09/20 03:40:37;;;;;;;1.65;0.47;;;17.30;99.90;;;;;;5010265;28;20026;-83
2023/09/20 03:43:03;;;;;;;2.00;0.20;;;17.20;99.90;;;;;;5010638;28;20116;-79
2023/09/20 03:45:30;;;;;;;7.07;1.70;;;17.20;99.90;;;;;;5026833;28;20026;-82
2023/09/20 03:47:57;;;;;;;0.95;0.82;;;17.20;99.90;;;;;;5027207;28;20117;-82
2023/09/20 03:50:24;;;;;;;0.63;0.43;;;17.20;99.90;;;;;;5011334;28;20115;-81
2023/09/20 03:52:51;;;;;;;0.30;0.30;;;17.20;99.90;;;;;;5010292;28;20025;-83
2023/09/20 03:55:19;;;;;;;4.18;0.75;;;17.30;99.90;;;;;;5010300;28;20036;-84
2023/09/20 03:57:45;;;;;;;2.00;0.77;;;17.30;99.90;;;;;;5009317;28;20030;-82
2023/09/20 04:00:12;;;;;;;0.50;0.47;;;17.30;99.90;;;;;;5009914;28;20088;-81
2023/09/20 04:02:48;;;;;;;7.00;1.40;;;17.20;99.90;;;;;;5010396;28;20041;-82
2023/09/20 04:05:16;;;;;;;0.20;0.20;;;17.10;99.90;;;;;;5009868;28;20029;-79
2023/09/20 04:07:44;;;;;;;2.20;1.50;;;17.20;99.90;;;;;;5011405;28;20489;-82
2023/09/20 04:10:11;;;;;;;0.85;0.40;;;17.10;99.90;;;;;;5009803;28;20022;-80
2023/09/20 04:12:38;;;;;;;0.00;0.00;;;17.20;99.90;;;;;;4993925;28;20042;-82
2023/09/20 04:15:05;;;;;;;0.60;0.30;;;17.10;99.90;;;;;;5009827;28;20029;-84
2023/09/20 04:17:40;;;;;;;0.70;0.63;;;17.00;99.90;;;;;;5011690;28;20040;-84
2023/09/20 04:20:07;;;;;;;3.35;1.73;;;17.10;99.90;;;;;;5009690;28;20026;-84
2023/09/20 04:22:37;;;;;;;5.75;1.42;;;17.00;99.90;;;;;;5005599;28;20049;-83
2023/09/20 04:25:05;;;;;;;1.33;0.52;;;17.00;99.90;;;;;;5017425;28;20066;-83
2023/09/20 04:27:32;;;;;;;0.10;0.10;;;17.10;99.90;;;;;;5009656;28;20030;-78
2023/09/20 04:29:58;;;;;;;0.60;0.60;;;17.10;99.90;;;;;;5026048;28;20022;-76
2023/09/20 04:32:24;;;;;;;0.47;0.47;;;17.00;99.90;;;;;;5009264;28;20116;-77
2023/09/20 04:34:52;;;;;;;0.30;0.30;;;17.00;99.90;;;;;;5009794;28;20055;-75
2023/09/20 04:37:20;;;;;;;1.23;0.35;;;17.00;99.90;;;;;;5009827;28;20041;-77
2023/09/20 04:39:47;;;;;;;0.80;0.80;;;17.00;99.90;;;;;;5026034;28;20075;-78
2023/09/20 04:42:14;;;;;;;0.00;0.00;;;17.10;99.90;;;;;;5009499;28;20030;-76
2023/09/20 04:44:41;;;;;;;0.00;0.00;;;17.10;99.90;;;;;;5009675;28;20030;-76
2023/09/20 04:47:10;;;;;;;0.13;0.03;;;16.90;99.90;;;;;;5009309;28;20871;-78
2023/09/20 04:49:37;;;;;;;0.43;0.38;;;16.90;99.90;;;;;;5025993;28;20022;-76
2023/09/20 04:52:05;;;;;;;0.55;0.55;;;16.90;99.90;;;;;;5009502;28;20038;-76
2023/09/20 04:54:33;;;;;;;5.95;0.35;;;16.90;99.90;;;;;;5009497;28;20069;-77
2023/09/20 04:57:01;;;;;;;0.80;0.20;;;16.90;99.90;;;;;;4990027;28;20026;-76
2023/09/20 04:59:27;;;;;;;0.00;0.00;;;16.90;99.90;;;;;;5003682;28;20026;-80
2023/09/20 05:01:55;;;;;;;4.28;1.48;;;17.00;99.90;;;;;;5019470;28;20030;-76
2023/09/20 05:04:21;;;;;;;23.10;0.65;;;17.00;99.90;;;;;;5005934;28;20075;-76
2023/09/20 05:06:47;;;;;;;0.00;0.00;;;16.90;99.90;;;;;;5016013;28;20021;-76
2023/09/20 05:09:13;;;;;;;2.10;0.60;;;17.00;99.90;;;;;;4997711;28;20032;-77
2023/09/20 05:11:39;;;;;;;0.50;0.32;;;16.90;99.90;;;;;;4989331;28;20038;-78
2023/09/20 05:14:05;;;;;;;3.30;0.47;;;16.80;99.90;;;;;;5009119;28;20030;-77
2023/09/20 05:16:32;;;;;;;0.20;0.17;;;16.80;99.90;;;;;;5008549;28;20032;-76
2023/09/20 05:18:59;;;;;;;0.73;0.68;;;16.80;99.90;;;;;;5005494;28;20018;-77
2023/09/20 05:21:25;;;;;;;0.00;0.00;;;16.80;99.90;;;;;;5009038;28;20036;-76
2023/09/20 05:23:50;;;;;;;0.10;0.10;;;16.80;99.90;;;;;;5009028;28;20030;-77
2023/09/20 05:26:18;;;;;;;1.02;0.90;;;16.80;99.90;;;;;;5010115;28;20057;-76
2023/09/20 05:28:46;;;;;;;0.45;0.45;;;16.80;99.90;;;;;;5008804;28;20064;-77
2023/09/20 05:31:14;;;;;;;2.50;0.25;;;16.90;99.90;;;;;;4992137;28;20035;-75
2023/09/20 05:33:39;;;;;;;4.88;0.45;;;17.00;99.90;;;;;;5010213;28;20113;-76
2023/09/20 05:36:06;;;;;;;0.00;0.00;;;16.90;99.90;;;;;;5010218;28;20100;-76
2023/09/20 05:38:32;;;;;;;0.40;0.32;;;17.00;99.90;;;;;;5009911;28;20033;-76
2023/09/20 05:40:58;;;;;;;1.05;0.43;;;16.90;99.90;;;;;;5010054;28;20087;-76
2023/09/20 05:43:24;;;;;;;0.10;0.10;;;16.90;99.90;;;;;;5022843;28;20428;-83
2023/09/20 05:45:50;;;;;;;0.20;0.20;;;16.90;99.90;;;;;;5025024;28;20427;-77
2023/09/20 05:48:16;;;;;;;0.40;0.40;;;17.10;99.90;;;;;;5040518;28;20386;-80
2023/09/20 05:50:42;;;;;;;0.20;0.20;;;17.10;99.90;;;;;;5028001;28;20080;-76
2023/09/20 05:53:11;;;;;;;0.10;0.10;;;17.00;99.90;;;;;;5029341;28;20368;-79
2023/09/20 05:55:43;;;;;;;0.52;0.40;;;17.00;99.90;;;;;;5091106;28;20039;-76
2023/09/20 05:58:10;;;;;;;0.28;0.28;;;17.00;99.90;;;;;;5057893;28;20033;-76
2023/09/20 06:00:35;;;;;;;0.00;0.00;;;17.10;99.90;;;;;;5036228;28;20034;-77
2023/09/20 06:03:05;;;;;;;0.00;0.00;;;17.00;99.90;;;;;;5025201;28;20041;-77
2023/09/20 06:05:33;;;;;;;0.90;0.57;;;17.00;99.90;;;;;;5039607;28;20011;-75
2023/09/20 06:07:59;;;;;;;1.45;1.05;;;17.00;99.90;;;;;;5084681;28;20112;-75
2023/09/20 06:10:25;;;;;;;1.73;0.80;;;17.10;99.90;;;;;;5045039;28;20486;-76
2023/09/20 06:12:51;;;;;;;0.38;0.38;;;17.00;99.90;;;;;;5033389;28;20128;-75
2023/09/20 06:15:17;;;;;;;0.68;0.68;;;17.10;99.90;;;;;;5036757;28;20149;-75
2023/09/20 06:17:43;;;;;;;0.13;0.13;;;17.10;99.90;;;;;;5096923;28;20554;-76
2023/09/20 06:20:18;;;;;;;7.22;0.40;;;17.20;99.90;;;;;;5070589;28;20136;-76
2023/09/20 06:22:48;;;;;;;2.58;0.68;;;17.30;99.90;;;;;;5043513;28;20022;-83
2023/09/20 06:25:21;;;;;;;7.43;1.15;;;17.30;99.90;;;;;;5023959;28;20094;-75
2023/09/20 06:27:50;;;;;;;6.88;1.55;;;17.30;99.90;;;;;;5028744;28;20486;-76
2023/09/20 06:30:21;;;;;;;9.02;2.05;;;17.20;99.90;;;;;;5011891;28;20034;-75
2023/09/20 06:32:48;;;;;;;1.20;1.10;;;17.30;99.90;;;;;;5068867;27;20500;-81
2023/09/20 06:35:21;;;;;;;7.00;1.05;;;17.30;99.90;;;;;;5053126;28;20030;-81
2023/09/20 06:37:48;;;;;;;1.13;0.88;;;17.30;99.90;;;;;;5015223;28;20056;-77
2023/09/20 06:40:57;;;;;;;4.43;2.10;;;17.30;99.90;;;;;;5021877;28;20065;-76
2023/09/20 06:43:03;;;;;;;5.57;1.75;;;17.30;99.90;;;;;;5027410;28;20041;-77
2023/09/20 06:45:29;;;;;;;0.80;0.80;;;17.40;99.90;;;;;;5062297;28;20052;-76
2023/09/20 06:47:55;;;;;;;0.98;0.88;;;17.50;99.90;;;;;;5023563;28;20476;-75
2023/09/20 06:50:21;;;;;;;0.35;0.35;;;17.40;99.90;;;;;;5030590;28;20034;-75
2023/09/20 06:52:48;;;;;;;0.05;0.05;;;17.50;99.90;;;;;;5017412;28;20543;-75
2023/09/20 06:55:16;;;;;;;0.32;0.30;;;17.50;99.90;;;;;;5022445;28;20035;-75
2023/09/20 06:57:42;;;;;;;1.10;0.55;;;17.60;99.90;;;;;;5026635;28;20486;-76
2023/09/20 07:00:21;;;;;;;2.28;1.10;;;17.60;99.90;;;;;;5019129;28;20029;-74
2023/09/20 07:02:49;;;;;;;1.40;0.65;;;17.80;99.90;;;;;;5026165;28;20030;-78
2023/09/20 07:05:15;;;;;;;1.25;0.90;;;17.80;99.90;;;;;;5027673;28;20024;-75
2023/09/20 07:07:42;;;;;;;0.20;0.20;;;17.90;99.90;;;;;;5052183;28;20038;-76
2023/09/20 07:10:08;;;;;;;6.18;0.82;;;18.10;99.90;;;;;;5023882;28;20029;-77
2023/09/20 07:12:35;;;;;;;0.10;0.10;;;18.10;99.90;;;;;;5014880;28;20034;-75
2023/09/20 07:15:02;;;;;;;0.90;0.55;;;18.20;99.90;;;;;;5029955;28;20030;-82
2023/09/20 07:17:28;;;;;;;0.57;0.57;;;18.20;99.90;;;;;;5079314;28;20032;-75
2023/09/20 07:19:57;;;;;;;0.60;0.60;;;18.20;99.90;;;;;;5044584;28;20072;-74
2023/09/20 07:22:23;;;;;;;0.68;0.65;;;18.30;99.90;;;;;;5023594;28;20026;-77
2023/09/20 07:24:54;;;;;;;1.60;1.08;;;18.30;99.90;;;;;;5052509;28;20036;-75
2023/09/20 07:27:21;;;;;;;0.83;0.63;;;18.20;99.90;;;;;;5045818;28;20031;-75
2023/09/20 07:29:47;;;;;;;15.32;1.15;;;18.20;99.90;;;;;;5012450;28;20391;-75
2023/09/20 07:32:15;;;;;;;2.63;1.13;;;18.20;99.90;;;;;;5025440;28;20041;-75
2023/09/20 07:34:41;;;;;;;0.95;0.55;;;18.20;99.90;;;;;;5059357;28;20113;-74
2023/09/20 07:37:07;;;;;;;12.15;1.63;;;18.40;99.90;;;;;;5060922;28;20101;-75
2023/09/20 07:39:33;;;;;;;1.20;0.38;;;18.40;99.90;;;;;;5028874;28;20022;-76
2023/09/20 07:41:59;;;;;;;3.25;1.73;;;18.40;99.90;;;;;;5029622;28;20394;-75
2023/09/20 07:44:30;;;;;;;0.28;0.28;;;18.30;99.90;;;;;;5006303;28;20046;-75
2023/09/20 07:46:57;;;;;;;6.47;0.30;;;18.30;99.90;;;;;;5061457;28;20034;-75
2023/09/20 07:49:23;;;;;;;0.75;0.75;;;18.30;99.90;;;;;;5054046;28;20036;-78
2023/09/20 07:51:50;;;;;;;1.25;0.32;;;18.30;99.90;;;;;;5016687;28;20030;-74
2023/09/20 07:54:17;;;;;;;0.73;0.73;;;18.40;99.90;;;;;;5025815;28;20026;-75
2023/09/20 07:56:49;;;;;;;0.10;0.10;;;18.50;99.90;;;;;;5012501;28;20474;-75
2023/09/20 07:59:16;;;;;;;1.35;0.57;;;18.60;99.90;;;;;;5029190;28;20031;-77
2023/09/20 08:01:43;;;;;;;2.97;1.35;;;18.60;99.90;;;;;;5025278;28;20038;-75
2023/09/20 08:04:10;;;;;;;4.07;1.23;;;18.50;99.90;;;;;;5012610;28;20374;-75
2023/09/20 08:06:37;;;;;;;2.70;0.88;;;18.50;99.90;;;;;;5021513;28;20078;-75
2023/09/20 08:09:04;;;;;;;8.68;1.42;;;18.60;99.90;;;;;;5069237;28;20026;-75
2023/09/20 08:11:31;;;;;;;1.80;0.98;;;18.60;99.90;;;;;;5057262;28;20043;-76
2023/09/20 08:14:00;;;;;;;2.03;0.82;;;18.70;99.90;;;;;;5020860;28;20087;-76
2023/09/20 08:16:32;;;;;;;8.13;0.30;;;18.70;99.90;;;;;;5029983;28;20355;-75
2023/09/20 08:21:42;;;;;;;3.40;0.68;;;18.90;99.90;;;;;;5067425;28;20593;-74
2023/09/20 09:00:27;;;;;;;1.02;0.57;;;19.50;99.90;;;;;;5036048;28;20099;-78
2023/09/20 09:02:57;;;;;;;0.20;0.20;;;19.40;99.90;;;;;;5025985;28;20069;-79
2023/09/20 09:05:28;;;;;;;4.57;3.10;;;19.30;99.90;;;;;;5012144;28;20497;-77
2023/09/20 09:07:56;;;;;;;3.07;0.73;;;19.30;99.90;;;;;;5056609;28;20055;-76
2023/09/20 09:10:22;;;;;;;1.13;0.65;;;19.20;99.90;;;;;;5043007;28;20304;-78
2023/09/20 09:12:49;;;;;;;1.05;0.73;;;19.20;99.90;;;;;;5033168;28;20041;-76
2023/09/20 09:15:17;;;;;;;7.32;1.08;;;19.00;99.90;;;;;;5027943;28;20037;-84
2023/09/20 09:17:48;;;;;;;0.20;0.20;;;19.10;99.90;;;;;;5049698;28;20113;-77
2023/09/20 09:20:15;;;;;;;2.67;0.55;;;19.20;99.90;;;;;;5067770;28;20478;-84
2023/09/20 09:22:42;;;;;;;0.13;0.13;;;19.20;99.90;;;;;;5041072;28;20071;-77
2023/09/20 09:25:14;;;;;;;0.60;0.60;;;19.30;99.90;;;;;;5063807;28;20036;-76
2023/09/20 09:27:42;;;;;;;7.35;1.45;;;19.30;99.90;;;;;;5030795;28;20022;-81
2023/09/20 09:30:11;;;;;;;1.42;0.90;;;19.20;99.90;;;;;;5010743;28;20041;-79
2023/09/20 09:32:37;;;;;;;5.03;1.70;;;19.40;99.90;;;;;;5070552;28;20478;-75
2023/09/20 09:35:07;;;;;;;1.65;1.45;;;19.40;99.90;;;;;;5068777;28;20101;-76
2023/09/20 09:37:35;;;;;;;1.33;0.88;;;19.50;99.90;;;;;;5052856;28;20067;-79
2023/09/20 09:40:02;;;;;;;0.32;0.20;;;19.60;99.90;;;;;;5017964;28;20067;-75
2023/09/20 09:42:28;;;;;;;0.47;0.47;;;19.80;99.90;;;;;;5034529;28;20041;-75
2023/09/20 09:44:55;;;;;;;1.45;0.98;;;20.00;99.90;;;;;;5071130;28;20108;-75
2023/09/20 09:47:24;;;;;;;1.45;1.00;;;20.10;99.90;;;;;;5071246;28;20051;-75
2023/09/20 09:49:52;;;;;;;9.65;1.48;;;20.40;99.90;;;;;;5032977;28;20034;-76
2023/09/20 09:52:25;;;;;;;0.68;0.68;;;20.20;99.90;;;;;;5014814;28;20486;-76
2023/09/20 09:54:52;;;;;;;0.55;0.55;;;20.40;99.90;;;;;;5092946;28;20367;-74
2023/09/20 09:57:19;;;;;;;2.95;1.65;;;20.50;99.90;;;;;;5083840;28;20035;-74
2023/09/20 09:59:46;;;;;;;0.47;0.17;;;20.40;99.90;;;;;;5057461;28;20028;-75
2023/09/20 10:02:18;;;;;;;4.15;0.57;;;20.30;99.90;;;;;;5026028;28;20049;-75
2023/09/20 10:04:47;;;;;;;;;;;20.10;99.90;;;;;;5015349;28;20042;-75
2023/09/20 10:07:16;;;;;;;2.22;1.40;;;20.20;99.90;;;;;;4999724;28;19996;-75
2023/09/20 10:09:49;;;;;;;0.30;0.30;;;20.10;99.90;;;;;;5048978;28;20473;-75
2023/09/20 10:12:21;;;;;;;0.95;0.88;;;20.10;99.90;;;;;;5035470;28;20041;-75
2023/09/20 10:14:47;;;;;;;2.05;0.88;;;20.00;99.90;;;;;;5022961;28;20041;-83
2023/09/20 10:17:20;;;;;;;0.82;0.80;;;20.10;99.90;;;;;;5031222;28;20030;-75
2023/09/20 10:19:53;;;;;;;3.10;0.90;;;20.10;99.90;;;;;;5088133;28;20031;-74
2023/09/20 10:22:25;;;;;;;4.30;1.35;;;20.10;99.90;;;;;;5035308;28;20038;-76
2023/09/20 10:24:58;;;;;;;3.78;0.65;;;20.20;99.90;;;;;;5054921;28;20215;-75
2023/09/20 10:27:42;;;;;;;1.38;1.27;;;20.30;99.90;;;;;;5044186;28;20067;-79
2023/09/20 10:30:10;;;;;;;0.20;0.20;;;20.30;99.90;;;;;;5004744;28;20094;-75
2023/09/20 10:32:48;;;;;;;0.82;0.82;;;20.50;99.90;;;;;;5072386;28;20034;-75
2023/09/20 10:35:19;;;;;;;0.45;0.45;;;20.60;99.90;;;;;;5021860;28;20024;-76
2023/09/20 10:38:08;;;;;;;5.53;1.50;;;20.70;99.90;;;;;;5047699;28;20034;-75
2023/09/20 10:40:46;;;;;;;1.60;0.28;;;20.60;99.90;;;;;;5024839;28;20042;-81
2023/09/20 10:43:13;;;;;;;0.90;0.60;;;20.70;99.90;;;;;;5054040;28;20584;-77
2023/09/20 10:45:39;;;;;;;1.10;0.43;;;20.90;99.90;;;;;;5049878;28;20026;-77
2023/09/20 10:48:14;;;;;;;3.85;1.00;;;21.20;99.90;;;;;;5042455;28;20105;-82
2023/09/20 10:50:52;;;;;;;0.20;0.20;;;21.10;99.90;;;;;;5029782;28;20037;-76
2023/09/20 10:53:19;;;;;;;2.08;0.93;;;21.10;99.90;;;;;;5033387;28;20492;-76
2023/09/20 10:55:45;;;;;;;0.90;0.52;;;21.10;99.90;;;;;;5095106;28;20110;-77
2023/09/20 10:58:14;;;;;;;0.57;0.52;;;21.10;99.90;;;;;;5061844;28;20758;-76
2023/09/20 11:00:40;;;;;;;0.13;0.13;;;21.10;99.90;;;;;;5038485;28;20030;-76
2023/09/20 11:03:09;;;;;;;6.85;1.23;;;21.00;99.90;;;;;;5026791;28;20106;-76
2023/09/20 11:05:36;;;;;;;2.25;0.35;;;21.10;99.90;;;;;;5045509;28;20028;-80
2023/09/20 11:08:11;;;;;;;0.70;0.70;;;20.90;99.90;;;;;;5085276;28;20144;-76
2023/09/20 11:10:43;;;;;;;2.28;1.10;;;20.60;99.90;;;;;;5047010;28;20034;-75
2023/09/20 11:13:12;;;;;;;1.35;0.57;;;20.60;99.90;;;;;;5044137;28;20047;-78
2023/09/20 11:15:41;;;;;;;2.53;0.88;;;20.80;99.90;;;;;;5022637;28;20033;-75
2023/09/20 11:18:08;;;;;;;6.50;1.20;;;20.80;99.90;;;;;;5068045;28;20432;-75
2023/09/20 11:20:34;;;;;;;4.03;0.65;;;20.80;99.90;;;;;;5053360;28;20386;-73
2023/09/20 11:23:02;;;;;;;7.32;1.35;;;20.70;99.90;;;;;;5018197;28;20443;-75
2023/09/20 11:25:31;;;;;;;0.45;0.35;;;20.80;99.90;;;;;;5067240;28;20046;-74
2023/09/20 11:27:57;;;;;;;1.50;0.65;;;20.90;99.90;;;;;;5025615;28;20018;-75
2023/09/20 11:30:31;;;;;;;0.82;0.43;;;20.90;99.90;;;;;;5012543;28;20385;-74
2023/09/20 11:32:58;;;;;;;3.22;0.80;;;20.90;99.90;;;;;;5079144;28;20053;-74
2023/09/20 11:35:42;;;;;;;0.75;0.40;;;21.00;99.90;;;;;;5051570;28;20026;-77
2023/09/20 11:38:10;;;;;;;2.75;0.50;;;21.00;99.90;;;;;;5009282;28;20075;-78
2023/09/20 11:40:37;;;;;;;2.45;0.95;;;20.90;99.90;;;;;;5010473;28;20394;-78
2023/09/20 11:43:05;;;;;;;0.15;0.15;;;20.90;99.90;;;;;;5011665;28;20438;-81
2023/09/20 11:45:33;;;;;;;2.25;0.88;;;21.00;99.90;;;;;;5011280;28;20030;-78
2023/09/20 11:48:08;;;;;;;0.05;0.05;;;21.00;99.90;;;;;;5011399;28;20109;-79
2023/09/20 11:50:34;;;;;;;1.73;0.95;;;21.20;99.90;;;;;;5010450;28;20034;-78
2023/09/20 11:53:00;;;;;;;0.85;0.38;;;21.00;99.90;;;;;;5011363;28;20034;-78
2023/09/20 11:55:30;;;;;;;0.25;0.25;;;20.90;99.90;;;;;;5011844;28;20532;-79
2023/09/20 11:57:59;;;;;;;0.40;0.30;;;21.00;99.90;;;;;;5011671;28;20092;-78
2023/09/20 12:00:27;;;;;;;0.10;0.10;;;21.40;99.90;;;;;;5011460;28;20064;-79
2023/09/20 12:02:53;;;;;;;0.30;0.30;;;21.40;99.90;;;;;;5011135;28;20033;-79
2023/09/20 12:05:21;;;;;;;4.15;1.42;;;21.80;99.90;;;;;;5011202;28;20018;-79
2023/09/20 12:07:55;;;;;;;3.17;1.30;;;21.90;99.90;;;;;;5011592;28;20073;-78
2023/09/20 12:10:21;;;;;;;0.57;0.22;;;21.90;99.90;;;;;;4998688;28;20098;-78
2023/09/20 12:12:47;;;;;;;1.45;1.00;;;21.50;99.90;;;;;;5011607;28;20038;-78
2023/09/20 12:15:13;;;;;;;2.78;0.65;;;21.50;99.90;;;;;;5010911;28;20049;-79
2023/09/20 12:17:39;;;;;;;0.45;0.20;;;21.60;99.90;;;;;;5011259;28;20046;-78
2023/09/20 12:20:06;;;;;;;0.10;0.10;;;21.50;99.90;;;;;;5009877;28;20022;-78
2023/09/20 12:22:32;;;;;;;0.95;0.30;;;21.80;99.90;;;;;;5009832;28;20040;-80
2023/09/20 12:24:58;;;;;;;0.88;0.50;;;22.00;99.90;;;;;;4993705;28;20074;-78
2023/09/20 12:27:24;;;;;;;3.35;0.68;;;21.80;99.90;;;;;;5011069;28;20060;-78
2023/09/20 12:29:50;;;;;;;0.10;0.10;;;21.80;99.90;;;;;;5011416;28;20440;-80
2023/09/20 12:32:16;;;;;;;0.20;0.20;;;22.00;99.90;;;;;;5009585;28;20053;-79
2023/09/20 12:34:41;;;;;;;1.02;0.60;;;22.30;99.90;;;;;;5011012;28;20140;-78
2023/09/20 12:37:07;;;;;;;0.80;0.45;;;21.80;99.90;;;;;;5026178;28;20029;-78
2023/09/20 12:39:36;;;;;;;0.13;0.10;;;21.90;99.90;;;;;;5011050;28;20501;-78
2023/09/20 12:42:02;;;;;;;0.00;0.00;;;22.00;99.90;;;;;;5010899;28;20026;-79
2023/09/20 12:44:28;;;;;;;0.30;0.30;;;22.10;99.90;;;;;;5009665;28;20049;-78
2023/09/20 12:46:54;;;;;;;0.75;0.35;;;22.50;99.90;;;;;;5025614;28;20121;-78
2023/09/20 12:49:20;;;;;;;0.57;0.40;;;22.80;99.90;;;;;;5009667;28;20030;-78
2023/09/20 12:51:46;;;;;;;1.55;1.00;;;22.80;99.90;;;;;;5011040;28;20386;-78
2023/09/20 12:54:12;;;;;;;1.88;0.75;;;22.70;99.90;;;;;;5010651;28;20061;-78
2023/09/20 12:56:39;;;;;;;1.05;0.52;;;22.40;99.90;;;;;;5010643;28;20109;-79
2023/09/20 12:59:05;;;;;;;0.28;0.28;;;22.30;99.90;;;;;;5009649;28;20105;-78
2023/09/20 13:01:31;;;;;;;0.25;0.17;;;22.50;99.90;;;;;;5009056;28;20143;-79
2023/09/20 13:03:57;;;;;;;2.20;0.93;;;22.50;99.90;;;;;;5009492;28;20138;-78
2023/09/20 13:06:24;;;;;;;0.10;0.10;;;22.20;99.90;;;;;;5010427;28;20033;-79
2023/09/20 13:08:50;;;;;;;3.80;1.80;;;22.10;99.90;;;;;;5026060;28;20037;-78
2023/09/20 13:11:17;;;;;;;3.58;0.98;;;22.10;99.90;;;;;;5010245;28;20041;-78
2023/09/20 13:13:42;;;;;;;0.10;0.10;;;22.10;99.90;;;;;;5010473;28;20022;-78
2023/09/20 13:16:14;;;;;;;5.38;1.02;;;22.00;99.90;;;;;;5010086;28;20034;-78
2023/09/20 13:18:40;;;;;;;0.30;0.30;;;21.90;99.90;;;;;;5010497;28;20026;-79
2023/09/20 13:21:06;;;;;;;1.80;1.20;;;22.10;99.90;;;;;;5010456;28;20397;-78
2023/09/20 13:23:32;;;;;;;0.52;0.52;;;22.30;99.90;;;;;;5010224;28;20107;-79
2023/09/20 13:25:59;;;;;;;1.17;0.30;;;22.10;99.90;;;;;;5010291;28;20457;-78
2023/09/20 13:28:25;;;;;;;0.60;0.50;;;21.90;99.90;;;;;;5010190;28;20034;-80
2023/09/20 13:30:51;;;;;;;1.08;0.98;;;21.90;99.90;;;;;;5009627;28;20041;-78